sensor_id;sensor_type;location;lat;lon;timestamp;P1;durP1;ratioP1;P2;durP2;ratioP2
64291;SDS011;50628;51.008;13.658;2023-02-01T00:02:38;8.03;;;2.97;;
64291;SDS011;50628;51.008;13.658;2023-02-01T00:07:41;11.17;;;3.00;;
64291;SDS011;50628;51.008;13.658;2023-02-01T00:12:44;6.43;;;2.10;;
64291;SDS011;50628;51.008;13.658;2023-02-01T00:17:46;5.53;;;1.83;;
64291;SDS011;50628;51.008;13.658;2023-02-01T00:22:48;7.57;;;3.17;;
64291;SDS011;50628;51.008;13.658;2023-02-01T00:27:52;11.77;;;3.23;;
64291;SDS011;50628;51.008;13.658;2023-02-01T00:32:53;10.17;;;4.17;;
64291;SDS011;50628;51.008;13.658;2023-02-01T00:37:55;12.93;;;3.30;;
64291;SDS011;50628;51.008;13.658;2023-02-01T00:43:00;10.17;;;3.07;;
64291;SDS011;50628;51.008;13.658;2023-02-01T00:48:01;11.83;;;2.70;;
64291;SDS011;50628;51.008;13.658;2023-02-01T00:53:03;11.57;;;3.13;;
64291;SDS011;50628;51.008;13.658;2023-02-01T00:58:07;9.80;;;2.77;;
64291;SDS011;50628;51.008;13.658;2023-02-01T01:03:09;9.87;;;2.90;;
64291;SDS011;50628;51.008;13.658;2023-02-01T01:08:18;8.10;;;2.93;;
64291;SDS011;50628;51.008;13.658;2023-02-01T01:13:22;9.33;;;2.17;;
64291;SDS011;50628;51.008;13.658;2023-02-01T01:18:24;5.33;;;1.60;;
64291;SDS011;50628;51.008;13.658;2023-02-01T01:23:26;8.77;;;2.60;;
64291;SDS011;50628;51.008;13.658;2023-02-01T01:28:29;6.77;;;2.13;;
64291;SDS011;50628;51.008;13.658;2023-02-01T01:33:31;7.53;;;2.40;;
64291;SDS011;50628;51.008;13.658;2023-02-01T01:38:34;9.20;;;2.30;;
64291;SDS011;50628;51.008;13.658;2023-02-01T01:43:48;13.13;;;2.27;;
64291;SDS011;50628;51.008;13.658;2023-02-01T01:48:57;12.00;;;2.20;;
64291;SDS011;50628;51.008;13.658;2023-02-01T01:54:05;13.00;;;2.40;;
64291;SDS011;50628;51.008;13.658;2023-02-01T01:59:14;11.90;;;2.23;;
64291;SDS011;50628;51.008;13.658;2023-02-01T02:04:16;10.73;;;2.40;;
64291;SDS011;50628;51.008;13.658;2023-02-01T02:09:18;8.80;;;1.50;;
64291;SDS011;50628;51.008;13.658;2023-02-01T02:14:21;11.67;;;1.50;;
64291;SDS011;50628;51.008;13.658;2023-02-01T02:19:38;5.67;;;1.67;;
64291;SDS011;50628;51.008;13.658;2023-02-01T02:25:03;4.20;;;1.50;;
64291;SDS011;50628;51.008;13.658;2023-02-01T02:30:33;11.83;;;2.83;;
64291;SDS011;50628;51.008;13.658;2023-02-01T02:35:49;5.47;;;1.70;;
64291;SDS011;50628;51.008;13.658;2023-02-01T02:40:59;12.50;;;2.53;;
64291;SDS011;50628;51.008;13.658;2023-02-01T02:46:12;9.17;;;2.57;;
64291;SDS011;50628;51.008;13.658;2023-02-01T02:51:42;6.97;;;1.90;;
64291;SDS011;50628;51.008;13.658;2023-02-01T02:57:06;7.60;;;1.73;;
64291;SDS011;50628;51.008;13.658;2023-02-01T03:02:29;10.40;;;2.00;;
64291;SDS011;50628;51.008;13.658;2023-02-01T03:07:57;13.47;;;3.00;;
64291;SDS011;50628;51.008;13.658;2023-02-01T03:13:05;14.70;;;2.73;;
64291;SDS011;50628;51.008;13.658;2023-02-01T03:18:11;8.80;;;2.33;;
64291;SDS011;50628;51.008;13.658;2023-02-01T03:23:18;9.97;;;2.03;;
64291;SDS011;50628;51.008;13.658;2023-02-01T03:28:24;9.83;;;2.17;;
64291;SDS011;50628;51.008;13.658;2023-02-01T03:33:29;16.07;;;3.00;;
64291;SDS011;50628;51.008;13.658;2023-02-01T03:38:37;11.77;;;2.87;;
64291;SDS011;50628;51.008;13.658;2023-02-01T03:43:49;11.03;;;1.97;;
64291;SDS011;50628;51.008;13.658;2023-02-01T03:48:55;12.90;;;2.40;;
64291;SDS011;50628;51.008;13.658;2023-02-01T03:53:58;8.00;;;2.03;;
64291;SDS011;50628;51.008;13.658;2023-02-01T03:59:03;11.73;;;2.47;;
64291;SDS011;50628;51.008;13.658;2023-02-01T04:04:09;9.20;;;2.00;;
64291;SDS011;50628;51.008;13.658;2023-02-01T04:09:14;11.60;;;2.87;;
64291;SDS011;50628;51.008;13.658;2023-02-01T04:14:16;9.77;;;2.20;;
64291;SDS011;50628;51.008;13.658;2023-02-01T04:19:18;8.97;;;1.60;;
64291;SDS011;50628;51.008;13.658;2023-02-01T04:24:21;14.67;;;2.90;;
64291;SDS011;50628;51.008;13.658;2023-02-01T04:29:23;8.40;;;2.63;;
64291;SDS011;50628;51.008;13.658;2023-02-01T04:34:25;11.30;;;2.27;;
64291;SDS011;50628;51.008;13.658;2023-02-01T04:39:28;9.67;;;2.17;;
64291;SDS011;50628;51.008;13.658;2023-02-01T04:44:30;14.63;;;2.50;;
64291;SDS011;50628;51.008;13.658;2023-02-01T04:49:31;12.27;;;2.53;;
64291;SDS011;50628;51.008;13.658;2023-02-01T04:54:35;13.40;;;2.27;;
64291;SDS011;50628;51.008;13.658;2023-02-01T04:59:37;11.70;;;2.23;;
64291;SDS011;50628;51.008;13.658;2023-02-01T05:04:38;10.87;;;2.20;;
64291;SDS011;50628;51.008;13.658;2023-02-01T05:09:42;15.17;;;2.87;;
64291;SDS011;50628;51.008;13.658;2023-02-01T05:14:43;8.87;;;1.87;;
64291;SDS011;50628;51.008;13.658;2023-02-01T05:19:45;13.80;;;2.47;;
64291;SDS011;50628;51.008;13.658;2023-02-01T05:24:49;13.77;;;2.53;;
64291;SDS011;50628;51.008;13.658;2023-02-01T05:29:50;11.47;;;2.47;;
64291;SDS011;50628;51.008;13.658;2023-02-01T05:34:52;12.10;;;2.67;;
64291;SDS011;50628;51.008;13.658;2023-02-01T05:39:57;12.77;;;2.53;;
64291;SDS011;50628;51.008;13.658;2023-02-01T05:44:58;11.57;;;2.87;;
64291;SDS011;50628;51.008;13.658;2023-02-01T05:50:00;12.03;;;2.37;;
64291;SDS011;50628;51.008;13.658;2023-02-01T05:55:04;13.27;;;2.43;;
64291;SDS011;50628;51.008;13.658;2023-02-01T06:00:07;20.53;;;3.23;;
64291;SDS011;50628;51.008;13.658;2023-02-01T06:05:13;16.77;;;2.07;;
64291;SDS011;50628;51.008;13.658;2023-02-01T06:10:16;13.63;;;2.57;;
64291;SDS011;50628;51.008;13.658;2023-02-01T06:15:19;18.93;;;3.00;;
64291;SDS011;50628;51.008;13.658;2023-02-01T06:20:21;11.47;;;2.50;;
64291;SDS011;50628;51.008;13.658;2023-02-01T06:25:24;11.40;;;2.07;;
64291;SDS011;50628;51.008;13.658;2023-02-01T06:30:26;15.03;;;3.87;;
64291;SDS011;50628;51.008;13.658;2023-02-01T06:35:28;12.47;;;2.27;;
64291;SDS011;50628;51.008;13.658;2023-02-01T06:40:32;12.37;;;2.57;;
64291;SDS011;50628;51.008;13.658;2023-02-01T06:45:34;7.80;;;1.73;;
64291;SDS011;50628;51.008;13.658;2023-02-01T06:50:35;10.53;;;2.63;;
64291;SDS011;50628;51.008;13.658;2023-02-01T06:55:39;11.80;;;2.40;;
64291;SDS011;50628;51.008;13.658;2023-02-01T07:00:41;15.70;;;3.43;;
64291;SDS011;50628;51.008;13.658;2023-02-01T07:05:42;12.80;;;2.73;;
64291;SDS011;50628;51.008;13.658;2023-02-01T07:10:46;10.80;;;2.37;;
64291;SDS011;50628;51.008;13.658;2023-02-01T07:15:47;14.73;;;3.43;;
64291;SDS011;50628;51.008;13.658;2023-02-01T07:20:50;12.30;;;2.50;;
64291;SDS011;50628;51.008;13.658;2023-02-01T07:25:54;9.53;;;2.37;;
64291;SDS011;50628;51.008;13.658;2023-02-01T07:31:01;15.67;;;3.20;;
64291;SDS011;50628;51.008;13.658;2023-02-01T07:36:05;17.57;;;3.30;;
64291;SDS011;50628;51.008;13.658;2023-02-01T07:41:09;12.60;;;3.47;;
64291;SDS011;50628;51.008;13.658;2023-02-01T07:46:11;12.07;;;2.90;;
64291;SDS011;50628;51.008;13.658;2023-02-01T07:51:16;6.87;;;2.10;;
64291;SDS011;50628;51.008;13.658;2023-02-01T07:56:20;8.67;;;2.57;;
64291;SDS011;50628;51.008;13.658;2023-02-01T08:01:23;15.93;;;2.97;;
64291;SDS011;50628;51.008;13.658;2023-02-01T08:06:26;10.40;;;2.80;;
64291;SDS011;50628;51.008;13.658;2023-02-01T08:11:32;13.93;;;2.70;;
64291;SDS011;50628;51.008;13.658;2023-02-01T08:16:34;9.73;;;2.70;;
64291;SDS011;50628;51.008;13.658;2023-02-01T08:21:37;8.10;;;3.00;;
64291;SDS011;50628;51.008;13.658;2023-02-01T08:26:41;11.10;;;2.43;;
64291;SDS011;50628;51.008;13.658;2023-02-01T08:31:43;13.53;;;2.83;;
64291;SDS011;50628;51.008;13.658;2023-02-01T08:36:44;9.33;;;2.33;;
64291;SDS011;50628;51.008;13.658;2023-02-01T08:41:48;10.87;;;2.50;;
64291;SDS011;50628;51.008;13.658;2023-02-01T08:47:10;10.57;;;2.47;;
64291;SDS011;50628;51.008;13.658;2023-02-01T08:52:12;9.43;;;1.97;;
64291;SDS011;50628;51.008;13.658;2023-02-01T08:57:15;7.93;;;2.30;;
64291;SDS011;50628;51.008;13.658;2023-02-01T09:02:17;11.93;;;2.50;;
64291;SDS011;50628;51.008;13.658;2023-02-01T09:07:19;7.17;;;2.07;;
64291;SDS011;50628;51.008;13.658;2023-02-01T09:12:22;10.93;;;2.00;;
64291;SDS011;50628;51.008;13.658;2023-02-01T09:17:24;9.53;;;2.60;;
64291;SDS011;50628;51.008;13.658;2023-02-01T09:22:26;11.07;;;2.63;;
64291;SDS011;50628;51.008;13.658;2023-02-01T09:27:30;17.60;;;3.30;;
64291;SDS011;50628;51.008;13.658;2023-02-01T09:32:32;28.80;;;5.37;;
64291;SDS011;50628;51.008;13.658;2023-02-01T09:37:33;29.63;;;7.27;;
64291;SDS011;50628;51.008;13.658;2023-02-01T09:42:49;21.10;;;4.60;;
64291;SDS011;50628;51.008;13.658;2023-02-01T09:48:02;33.33;;;6.60;;
64291;SDS011;50628;51.008;13.658;2023-02-01T09:53:13;12.43;;;3.17;;
64291;SDS011;50628;51.008;13.658;2023-02-01T09:58:22;30.77;;;5.03;;
64291;SDS011;50628;51.008;13.658;2023-02-01T10:03:29;6.93;;;2.07;;
64291;SDS011;50628;51.008;13.658;2023-02-01T10:08:36;7.03;;;2.30;;
64291;SDS011;50628;51.008;13.658;2023-02-01T10:13:56;6.73;;;2.00;;
64291;SDS011;50628;51.008;13.658;2023-02-01T10:19:10;9.65;;;3.08;;
64291;SDS011;50628;51.008;13.658;2023-02-01T10:29:59;11.97;;;2.90;;
64291;SDS011;50628;51.008;13.658;2023-02-01T10:35:08;9.47;;;2.90;;
64291;SDS011;50628;51.008;13.658;2023-02-01T10:40:17;9.23;;;1.97;;
64291;SDS011;50628;51.008;13.658;2023-02-01T10:45:24;13.57;;;2.37;;
64291;SDS011;50628;51.008;13.658;2023-02-01T10:50:31;10.87;;;2.00;;
64291;SDS011;50628;51.008;13.658;2023-02-01T10:55:39;11.40;;;2.27;;
64291;SDS011;50628;51.008;13.658;2023-02-01T11:00:44;11.73;;;3.10;;
64291;SDS011;50628;51.008;13.658;2023-02-01T11:05:49;9.67;;;2.47;;
64291;SDS011;50628;51.008;13.658;2023-02-01T11:10:56;13.03;;;2.80;;
64291;SDS011;50628;51.008;13.658;2023-02-01T11:16:01;9.37;;;2.30;;
64291;SDS011;50628;51.008;13.658;2023-02-01T11:21:06;12.20;;;2.87;;
64291;SDS011;50628;51.008;13.658;2023-02-01T11:26:10;18.33;;;3.13;;
64291;SDS011;50628;51.008;13.658;2023-02-01T11:31:16;6.60;;;2.00;;
64291;SDS011;50628;51.008;13.658;2023-02-01T11:36:18;11.37;;;2.30;;
64291;SDS011;50628;51.008;13.658;2023-02-01T11:41:27;5.63;;;1.40;;
64291;SDS011;50628;51.008;13.658;2023-02-01T11:46:31;10.83;;;2.13;;
64291;SDS011;50628;51.008;13.658;2023-02-01T11:51:38;7.23;;;1.73;;
64291;SDS011;50628;51.008;13.658;2023-02-01T11:56:48;8.50;;;2.20;;
64291;SDS011;50628;51.008;13.658;2023-02-01T12:07:49;10.57;;;2.43;;
64291;SDS011;50628;51.008;13.658;2023-02-01T12:13:03;10.27;;;3.00;;
64291;SDS011;50628;51.008;13.658;2023-02-01T12:18:22;11.60;;;2.57;;
64291;SDS011;50628;51.008;13.658;2023-02-01T12:29:18;18.07;;;2.93;;
64291;SDS011;50628;51.008;13.658;2023-02-01T12:34:36;13.90;;;3.37;;
64291;SDS011;50628;51.008;13.658;2023-02-01T12:40:06;14.53;;;3.20;;
64291;SDS011;50628;51.008;13.658;2023-02-01T12:45:25;11.93;;;2.20;;
64291;SDS011;50628;51.008;13.658;2023-02-01T12:50:37;9.13;;;1.83;;
64291;SDS011;50628;51.008;13.658;2023-02-01T12:55:46;13.33;;;2.87;;
64291;SDS011;50628;51.008;13.658;2023-02-01T13:00:54;6.73;;;1.90;;
64291;SDS011;50628;51.008;13.658;2023-02-01T13:06:02;9.73;;;2.30;;
64291;SDS011;50628;51.008;13.658;2023-02-01T13:11:10;9.33;;;2.07;;
64291;SDS011;50628;51.008;13.658;2023-02-01T13:16:21;14.13;;;3.13;;
64291;SDS011;50628;51.008;13.658;2023-02-01T13:21:29;11.63;;;2.37;;
64291;SDS011;50628;51.008;13.658;2023-02-01T13:26:34;9.50;;;2.17;;
64291;SDS011;50628;51.008;13.658;2023-02-01T13:31:42;9.27;;;2.07;;
64291;SDS011;50628;51.008;13.658;2023-02-01T13:36:59;10.90;;;2.23;;
64291;SDS011;50628;51.008;13.658;2023-02-01T13:42:16;12.07;;;2.30;;
64291;SDS011;50628;51.008;13.658;2023-02-01T13:47:23;10.20;;;2.70;;
64291;SDS011;50628;51.008;13.658;2023-02-01T13:52:35;8.00;;;1.90;;
64291;SDS011;50628;51.008;13.658;2023-02-01T13:57:40;7.13;;;2.00;;
64291;SDS011;50628;51.008;13.658;2023-02-01T14:02:59;4.83;;;1.80;;
64291;SDS011;50628;51.008;13.658;2023-02-01T14:08:11;7.17;;;1.10;;
64291;SDS011;50628;51.008;13.658;2023-02-01T14:13:22;8.00;;;1.70;;
64291;SDS011;50628;51.008;13.658;2023-02-01T14:24:04;10.10;;;2.13;;
64291;SDS011;50628;51.008;13.658;2023-02-01T14:29:25;8.97;;;1.93;;
64291;SDS011;50628;51.008;13.658;2023-02-01T14:34:38;10.93;;;2.60;;
64291;SDS011;50628;51.008;13.658;2023-02-01T14:39:55;10.20;;;2.20;;
64291;SDS011;50628;51.008;13.658;2023-02-01T14:50:43;8.50;;;2.10;;
64291;SDS011;50628;51.008;13.658;2023-02-01T14:55:51;11.00;;;2.67;;
64291;SDS011;50628;51.008;13.658;2023-02-01T15:01:01;9.10;;;2.23;;
64291;SDS011;50628;51.008;13.658;2023-02-01T15:06:13;10.83;;;2.13;;
64291;SDS011;50628;51.008;13.658;2023-02-01T15:11:55;8.80;;;1.90;;
64291;SDS011;50628;51.008;13.658;2023-02-01T15:17:02;10.07;;;3.23;;
64291;SDS011;50628;51.008;13.658;2023-02-01T15:22:18;10.33;;;2.90;;
64291;SDS011;50628;51.008;13.658;2023-02-01T15:27:21;12.87;;;2.20;;
64291;SDS011;50628;51.008;13.658;2023-02-01T15:32:28;9.03;;;1.77;;
64291;SDS011;50628;51.008;13.658;2023-02-01T15:37:31;7.17;;;2.17;;
64291;SDS011;50628;51.008;13.658;2023-02-01T15:42:35;12.20;;;1.83;;
64291;SDS011;50628;51.008;13.658;2023-02-01T15:47:37;8.80;;;2.03;;
64291;SDS011;50628;51.008;13.658;2023-02-01T15:52:41;8.00;;;2.07;;
64291;SDS011;50628;51.008;13.658;2023-02-01T15:57:44;5.80;;;1.90;;
64291;SDS011;50628;51.008;13.658;2023-02-01T16:02:51;8.37;;;2.50;;
64291;SDS011;50628;51.008;13.658;2023-02-01T16:07:55;10.50;;;2.70;;
64291;SDS011;50628;51.008;13.658;2023-02-01T16:13:05;9.70;;;3.10;;
64291;SDS011;50628;51.008;13.658;2023-02-01T16:18:07;9.53;;;2.17;;
64291;SDS011;50628;51.008;13.658;2023-02-01T16:23:09;6.90;;;2.77;;
64291;SDS011;50628;51.008;13.658;2023-02-01T16:28:13;6.60;;;3.07;;
64291;SDS011;50628;51.008;13.658;2023-02-01T16:33:16;12.50;;;3.07;;
64291;SDS011;50628;51.008;13.658;2023-02-01T16:38:22;11.87;;;3.43;;
64291;SDS011;50628;51.008;13.658;2023-02-01T16:43:25;10.03;;;2.83;;
64291;SDS011;50628;51.008;13.658;2023-02-01T16:48:28;8.90;;;3.40;;
64291;SDS011;50628;51.008;13.658;2023-02-01T16:53:32;9.43;;;3.00;;
64291;SDS011;50628;51.008;13.658;2023-02-01T16:58:35;8.03;;;3.00;;
64291;SDS011;50628;51.008;13.658;2023-02-01T17:03:41;12.10;;;2.83;;
64291;SDS011;50628;51.008;13.658;2023-02-01T17:08:44;13.93;;;4.00;;
64291;SDS011;50628;51.008;13.658;2023-02-01T17:13:50;1.87;;;1.00;;
64291;SDS011;50628;51.008;13.658;2023-02-01T17:18:54;2.77;;;0.90;;
64291;SDS011;50628;51.008;13.658;2023-02-01T17:23:58;2.60;;;0.90;;
64291;SDS011;50628;51.008;13.658;2023-02-01T17:29:02;3.03;;;0.83;;
64291;SDS011;50628;51.008;13.658;2023-02-01T17:34:04;1.13;;;0.70;;
64291;SDS011;50628;51.008;13.658;2023-02-01T17:39:06;6.33;;;2.53;;
64291;SDS011;50628;51.008;13.658;2023-02-01T17:44:10;4.43;;;1.00;;
64291;SDS011;50628;51.008;13.658;2023-02-01T17:49:12;2.63;;;0.70;;
64291;SDS011;50628;51.008;13.658;2023-02-01T17:54:13;4.03;;;0.60;;
64291;SDS011;50628;51.008;13.658;2023-02-01T17:59:17;1.67;;;0.57;;
64291;SDS011;50628;51.008;13.658;2023-02-01T18:04:19;4.73;;;0.73;;
64291;SDS011;50628;51.008;13.658;2023-02-01T18:09:21;3.93;;;0.67;;
64291;SDS011;50628;51.008;13.658;2023-02-01T18:14:25;4.63;;;1.20;;
64291;SDS011;50628;51.008;13.658;2023-02-01T18:19:26;5.67;;;0.63;;
64291;SDS011;50628;51.008;13.658;2023-02-01T18:24:28;7.90;;;1.30;;
64291;SDS011;50628;51.008;13.658;2023-02-01T18:29:34;3.40;;;0.70;;
64291;SDS011;50628;51.008;13.658;2023-02-01T18:34:36;10.07;;;2.57;;
64291;SDS011;50628;51.008;13.658;2023-02-01T18:39:37;4.43;;;1.10;;
64291;SDS011;50628;51.008;13.658;2023-02-01T18:44:41;5.23;;;1.43;;
64291;SDS011;50628;51.008;13.658;2023-02-01T18:49:42;2.63;;;0.80;;
64291;SDS011;50628;51.008;13.658;2023-02-01T18:54:44;4.77;;;0.80;;
64291;SDS011;50628;51.008;13.658;2023-02-01T18:59:48;9.00;;;1.27;;
64291;SDS011;50628;51.008;13.658;2023-02-01T19:04:49;5.13;;;0.70;;
64291;SDS011;50628;51.008;13.658;2023-02-01T19:09:51;5.20;;;0.70;;
64291;SDS011;50628;51.008;13.658;2023-02-01T19:14:55;5.37;;;0.80;;
64291;SDS011;50628;51.008;13.658;2023-02-01T19:19:56;2.60;;;0.93;;
64291;SDS011;50628;51.008;13.658;2023-02-01T19:24:59;3.37;;;0.70;;
64291;SDS011;50628;51.008;13.658;2023-02-01T19:30:02;2.43;;;0.73;;
64291;SDS011;50628;51.008;13.658;2023-02-01T19:35:05;3.00;;;0.83;;
64291;SDS011;50628;51.008;13.658;2023-02-01T19:40:09;5.93;;;1.00;;
64291;SDS011;50628;51.008;13.658;2023-02-01T19:45:14;4.77;;;1.23;;
64291;SDS011;50628;51.008;13.658;2023-02-01T19:50:17;4.17;;;0.87;;
64291;SDS011;50628;51.008;13.658;2023-02-01T19:55:20;2.43;;;0.40;;
64291;SDS011;50628;51.008;13.658;2023-02-01T20:00:24;3.33;;;0.80;;
64291;SDS011;50628;51.008;13.658;2023-02-01T20:05:26;4.67;;;1.80;;
64291;SDS011;50628;51.008;13.658;2023-02-01T20:10:28;5.20;;;1.17;;
64291;SDS011;50628;51.008;13.658;2023-02-01T20:15:32;7.03;;;0.90;;
64291;SDS011;50628;51.008;13.658;2023-02-01T20:20:34;6.33;;;0.80;;
64291;SDS011;50628;51.008;13.658;2023-02-01T20:25:36;5.37;;;0.80;;
64291;SDS011;50628;51.008;13.658;2023-02-01T20:30:39;7.60;;;1.17;;
64291;SDS011;50628;51.008;13.658;2023-02-01T20:35:44;5.87;;;0.60;;
64291;SDS011;50628;51.008;13.658;2023-02-01T20:40:46;11.70;;;2.40;;
64291;SDS011;50628;51.008;13.658;2023-02-01T20:45:49;2.60;;;0.87;;
64291;SDS011;50628;51.008;13.658;2023-02-01T20:50:52;6.27;;;0.90;;
64291;SDS011;50628;51.008;13.658;2023-02-01T20:55:55;2.50;;;0.43;;
64291;SDS011;50628;51.008;13.658;2023-02-01T21:00:59;7.10;;;0.93;;
64291;SDS011;50628;51.008;13.658;2023-02-01T21:06:02;8.27;;;1.37;;
64291;SDS011;50628;51.008;13.658;2023-02-01T21:11:06;2.60;;;1.10;;
64291;SDS011;50628;51.008;13.658;2023-02-01T21:16:12;3.93;;;1.03;;
64291;SDS011;50628;51.008;13.658;2023-02-01T21:21:14;5.13;;;0.80;;
64291;SDS011;50628;51.008;13.658;2023-02-01T21:26:18;4.30;;;1.07;;
64291;SDS011;50628;51.008;13.658;2023-02-01T21:31:24;5.80;;;1.07;;
64291;SDS011;50628;51.008;13.658;2023-02-01T21:36:26;4.40;;;0.90;;
64291;SDS011;50628;51.008;13.658;2023-02-01T21:41:31;8.10;;;1.93;;
64291;SDS011;50628;51.008;13.658;2023-02-01T21:46:54;9.27;;;2.43;;
64291;SDS011;50628;51.008;13.658;2023-02-01T21:51:56;5.53;;;1.37;;
64291;SDS011;50628;51.008;13.658;2023-02-01T21:56:57;4.10;;;1.13;;
64291;SDS011;50628;51.008;13.658;2023-02-01T22:02:01;7.43;;;1.53;;
64291;SDS011;50628;51.008;13.658;2023-02-01T22:07:04;5.67;;;1.50;;
64291;SDS011;50628;51.008;13.658;2023-02-01T22:12:06;6.73;;;1.87;;
64291;SDS011;50628;51.008;13.658;2023-02-01T22:17:11;5.17;;;1.33;;
64291;SDS011;50628;51.008;13.658;2023-02-01T22:22:13;4.10;;;1.60;;
64291;SDS011;50628;51.008;13.658;2023-02-01T22:27:15;3.33;;;1.37;;
64291;SDS011;50628;51.008;13.658;2023-02-01T22:32:19;6.33;;;1.97;;
64291;SDS011;50628;51.008;13.658;2023-02-01T22:37:21;12.47;;;3.90;;
64291;SDS011;50628;51.008;13.658;2023-02-01T22:42:22;6.03;;;1.70;;
64291;SDS011;50628;51.008;13.658;2023-02-01T22:47:26;6.80;;;2.00;;
64291;SDS011;50628;51.008;13.658;2023-02-01T22:52:28;12.00;;;2.27;;
64291;SDS011;50628;51.008;13.658;2023-02-01T22:57:30;4.80;;;1.73;;
64291;SDS011;50628;51.008;13.658;2023-02-01T23:02:34;6.63;;;1.63;;
64291;SDS011;50628;51.008;13.658;2023-02-01T23:07:36;4.87;;;1.50;;
64291;SDS011;50628;51.008;13.658;2023-02-01T23:12:38;7.57;;;1.73;;
64291;SDS011;50628;51.008;13.658;2023-02-01T23:17:41;4.07;;;1.03;;
64291;SDS011;50628;51.008;13.658;2023-02-01T23:22:45;7.30;;;1.57;;
64291;SDS011;50628;51.008;13.658;2023-02-01T23:27:48;10.67;;;1.53;;
64291;SDS011;50628;51.008;13.658;2023-02-01T23:32:51;8.27;;;2.03;;
64291;SDS011;50628;51.008;13.658;2023-02-01T23:37:53;6.73;;;2.03;;
64291;SDS011;50628;51.008;13.658;2023-02-01T23:42:55;7.97;;;1.50;;
64291;SDS011;50628;51.008;13.658;2023-02-01T23:48:12;5.13;;;1.10;;
64291;SDS011;50628;51.008;13.658;2023-02-01T23:53:14;7.70;;;1.67;;
64291;SDS011;50628;51.008;13.658;2023-02-01T23:58:15;4.60;;;1.30;;
